Time;durP1;ratioP1;P1;durP2;ratioP2;P2;SDS_P1;SDS_P2;PMS_P1;PMS_P2;Temp;Humidity;BMP_temperature;BMP_pressure;BME280_temperature;BME280_humidity;BME280_pressure;Samples;Min_cycle;Max_cycle;Signal;HPM_P1;HPM_P2
2022/01/12 00:00:52;;;;;;;;;;;;;;;19.30;48.69;103378.75;7286034;19;153424;-51
2022/01/12 00:03:19;;;;;;;;;;;;;;;19.36;48.22;103374.94;7278994;19;152073;-52
2022/01/12 00:05:46;;;;;;;;;;;;;;;19.41;48.61;103379.84;7280940;19;153810;-52
2022/01/12 00:08:13;;;;;;;;;;;;;;;19.45;48.12;103381.94;7280299;19;154224;-51
2022/01/12 00:10:40;;;;;;;;;;;;;;;19.50;48.33;103386.81;7283896;19;151849;-52
2022/01/12 00:13:07;;;;;;;;;;;;;;;19.53;48.57;103397.59;7282292;19;152664;-51
2022/01/12 00:15:34;;;;;;;;;;;;;;;19.58;48.66;103411.69;7279387;19;153635;-51
2022/01/12 00:18:01;;;;;;;;;;;;;;;19.61;48.49;103413.19;7280407;19;152142;-55
2022/01/12 00:20:28;;;;;;;;;;;;;;;19.65;48.08;103420.88;7279509;19;152972;-52
2022/01/12 00:22:55;;;;;;;;;;;;;;;19.67;48.18;103421.47;7287989;19;153698;-51
2022/01/12 00:35:36;;;;;;;;;;;;;;;19.76;48.00;103428.44;7277959;19;153040;-51
2022/01/12 00:38:03;;;;;;;;;;;;;;;19.78;47.70;103440.28;7278341;19;152859;-51
2022/01/12 00:40:30;;;;;;;;;;;;;;;19.79;48.08;103444.78;7279483;19;152930;-51
2022/01/12 00:42:58;;;;;;;;;;;;;;;19.77;47.96;103449.78;7287413;19;153095;-52
2022/01/12 00:45:25;;;;;;;;;;;;;;;19.80;47.97;103449.31;7282009;19;152638;-51
2022/01/12 00:47:52;;;;;;;;;;;;;;;19.79;47.72;103436.38;7278168;19;154357;-51
2022/01/12 00:50:19;;;;;;;;;;;;;;;19.81;47.81;103447.34;7281218;19;151974;-51
2022/01/12 00:52:48;;;;;;;;;;;;;;;19.79;47.64;103442.00;7281461;19;152594;-52
2022/01/12 00:55:15;;;;;;;;;;;;;;;19.79;47.81;103450.41;7278570;19;153252;-52
2022/01/12 00:57:42;;;;;;;;;;;;;;;19.79;47.65;103461.63;7280483;19;151943;-51
2022/01/12 01:00:10;;;;;;;;;;;;;;;19.78;47.43;103467.47;7281120;19;151801;-52
2022/01/12 01:02:37;;;;;;;;;;;;;;;19.77;47.42;103469.41;7277051;19;153563;-51
2022/01/12 01:05:04;;;;;;;;;;;;;;;19.76;47.90;103472.47;7286960;19;152419;-52
2022/01/12 01:07:31;;;;;;;;;;;;;;;19.75;47.93;103476.38;7277365;19;154583;-51
2022/01/12 01:12:35;;;;;;;;;;;;;;;19.75;48.08;103476.38;7279903;19;153594;-51
2022/01/12 01:15:07;;;;;;;;;;;;;;;19.72;48.39;103472.09;7278628;19;153990;-51
2022/01/12 01:25:32;;;;;;;;;;;;;;;19.67;48.37;103505.63;7280199;19;152039;-52
2022/01/12 01:27:59;;;;;;;;;;;;;;;19.64;48.05;103514.50;7286509;19;153630;-52
2022/01/12 01:30:26;;;;;;;;;;;;;;;19.65;47.87;103509.75;7280845;19;152064;-51
2022/01/12 01:32:54;;;;;;;;;;;;;;;19.64;48.40;103514.50;7277570;19;153359;-51
2022/01/12 01:35:20;;;;;;;;;;;;;;;19.61;48.29;103512.19;7275843;19;153661;-51
2022/01/12 01:37:47;;;;;;;;;;;;;;;19.59;47.96;103505.97;7277738;19;151815;-51
2022/01/12 01:40:14;;;;;;;;;;;;;;;19.58;48.37;103515.47;7279243;19;154105;-51
2022/01/12 01:43:20;;;;;;;;;;;;;;;19.56;48.38;103511.19;7280204;19;153443;-52
2022/01/12 01:53:22;;;;;;;;;;;;;;;19.48;48.53;103495.59;7286017;19;152222;-52
2022/01/12 01:55:50;;;;;;;;;;;;;;;19.45;48.69;103505.31;7283142;19;153899;-52
2022/01/12 01:58:16;;;;;;;;;;;;;;;19.44;48.63;103514.81;7284558;19;152100;-51
2022/01/12 02:00:43;;;;;;;;;;;;;;;19.42;49.11;103516.97;7284040;19;153253;-52
2022/01/12 02:03:10;;;;;;;;;;;;;;;19.40;49.15;103516.34;7284321;19;153333;-51
2022/01/12 02:05:39;;;;;;;;;;;;;;;19.40;49.49;103518.31;7284142;19;152585;-51
2022/01/12 02:08:05;;;;;;;;;;;;;;;19.37;49.35;103527.19;7282576;19;152784;-52
2022/01/12 02:10:32;;;;;;;;;;;;;;;19.38;49.40;103532.56;7284669;19;153739;-51
2022/01/12 02:12:59;;;;;;;;;;;;;;;19.35;49.35;103533.03;7291482;19;152072;-52
2022/01/12 02:15:26;;;;;;;;;;;;;;;19.34;49.51;103544.50;7280578;19;153627;-51
2022/01/12 02:35:10;;;;;;;;;;;;;;;19.33;49.62;103548.38;7284367;19;153013;-51
2022/01/12 02:36:19;;;;;;;;;;;;;;;19.23;49.28;103562.09;7290409;19;152762;-51
2022/01/12 02:41:21;;;;;;;;;;;;;;;19.21;49.57;103567.09;7281992;19;152540;-51
2022/01/12 02:54:13;;;;;;;;;;;;;;;19.09;49.79;103553.88;7285441;19;151933;-51
2022/01/12 02:56:40;;;;;;;;;;;;;;;19.08;49.63;103559.69;7289277;19;153495;-51
2022/01/12 02:59:09;;;;;;;;;;;;;;;19.07;49.49;103558.88;7284179;19;152429;-51
2022/01/12 03:04:12;;;;;;;;;;;;;;;19.04;49.67;103564.94;7282459;19;153436;-51
2022/01/12 03:06:41;;;;;;;;;;;;;;;18.99;49.86;103564.78;7281160;19;153348;-51
2022/01/12 03:09:09;;;;;;;;;;;;;;;19.00;49.89;103574.03;7282227;19;152964;-51
2022/01/12 03:11:37;;;;;;;;;;;;;;;18.97;49.57;103575.38;7280924;19;153484;-51
2022/01/12 03:14:04;;;;;;;;;;;;;;;18.96;49.92;103579.25;7280979;19;152433;-51
2022/01/12 03:16:31;;;;;;;;;;;;;;;18.96;50.08;103576.47;7279601;19;153233;-51
2022/01/12 03:18:58;;;;;;;;;;;;;;;18.94;49.92;103578.63;7289639;19;153649;-52
2022/01/12 03:21:27;;;;;;;;;;;;;;;18.91;49.91;103570.69;7282771;19;153468;-51
2022/01/12 03:23:54;;;;;;;;;;;;;;;18.91;50.09;103567.03;7279620;19;153306;-51
2022/01/12 03:26:21;;;;;;;;;;;;;;;18.88;49.90;103559.97;7278780;19;151977;-51
2022/01/12 03:28:53;;;;;;;;;;;;;;;18.86;50.22;103566.88;7280484;19;153189;-51
2022/01/12 03:31:22;;;;;;;;;;;;;;;18.84;49.99;103561.53;7279741;19;153917;-53
2022/01/12 03:33:54;;;;;;;;;;;;;;;18.83;50.34;103568.22;7282024;19;152248;-51
2022/01/12 03:38:52;;;;;;;;;;;;;;;18.81;50.29;103567.56;7279434;19;153772;-51
2022/01/12 03:41:19;;;;;;;;;;;;;;;18.79;50.48;103571.72;7290300;19;152167;-52
2022/01/12 03:43:52;;;;;;;;;;;;;;;18.75;50.98;103587.28;7281672;19;153869;-52
2022/01/12 03:46:20;;;;;;;;;;;;;;;18.73;50.75;103587.50;7279884;19;152178;-51
2022/01/12 03:48:47;;;;;;;;;;;;;;;18.72;50.85;103596.97;7282763;19;152758;-52
2022/01/12 03:51:13;;;;;;;;;;;;;;;18.72;50.77;103588.56;7278830;19;153865;-52
2022/01/12 03:53:40;;;;;;;;;;;;;;;18.70;50.78;103601.09;7280727;19;152028;-52
2022/01/12 03:56:07;;;;;;;;;;;;;;;18.69;50.82;103591.84;7280881;19;152661;-51
2022/01/12 03:58:34;;;;;;;;;;;;;;;18.64;51.01;103597.28;7278992;19;154027;-51
2022/01/12 04:01:00;;;;;;;;;;;;;;;18.68;50.53;103595.72;7283745;19;152049;-51
2022/01/12 04:03:29;;;;;;;;;;;;;;;18.63;51.01;103585.22;7290087;19;152916;-51
2022/01/12 04:08:31;;;;;;;;;;;;;;;18.63;50.94;103592.75;7279704;19;153217;-52
2022/01/12 04:11:00;;;;;;;;;;;;;;;18.62;51.26;103593.88;7279405;19;153523;-51
2022/01/12 04:13:28;;;;;;;;;;;;;;;18.59;51.01;103592.38;7281792;19;151684;-51
2022/01/12 04:15:56;;;;;;;;;;;;;;;18.56;51.17;103592.00;7282612;19;152674;-52
2022/01/12 04:18:23;;;;;;;;;;;;;;;18.55;51.15;103593.94;7282201;19;153980;-53
2022/01/12 04:20:51;;;;;;;;;;;;;;;18.52;50.89;103593.50;7279572;19;152430;-52
2022/01/12 04:23:19;;;;;;;;;;;;;;;18.51;51.02;103584.25;7279925;19;153274;-52
2022/01/12 04:25:47;;;;;;;;;;;;;;;18.50;51.10;103588.13;7286033;19;154012;-51
2022/01/12 04:28:14;;;;;;;;;;;;;;;18.49;51.19;103603.19;7280048;19;153684;-51
2022/01/12 04:30:41;;;;;;;;;;;;;;;18.46;51.13;103609.28;7280433;19;153866;-51
2022/01/12 04:33:08;;;;;;;;;;;;;;;18.47;51.22;103607.34;7281383;19;152038;-51
2022/01/12 04:35:44;;;;;;;;;;;;;;;18.47;51.25;103604.53;7280865;19;152430;-51
2022/01/12 04:38:10;;;;;;;;;;;;;;;18.45;50.90;103612.28;7274677;19;153509;-51
2022/01/12 04:40:37;;;;;;;;;;;;;;;18.42;50.94;103609.97;7283030;19;152601;-51
2022/01/12 04:43:05;;;;;;;;;;;;;;;18.41;51.33;103611.91;7279833;19;153293;-51
2022/01/12 04:45:38;;;;;;;;;;;;;;;18.40;51.28;103609.31;7278075;19;153491;-51
2022/01/12 04:50:37;;;;;;;;;;;;;;;18.37;51.10;103604.19;7277914;19;153399;-51
2022/01/12 04:53:04;;;;;;;;;;;;;;;18.41;51.80;103613.84;7280419;19;152467;-51
2022/01/12 04:55:31;;;;;;;;;;;;;;;18.43;52.06;103615.34;7277389;19;152796;-51
2022/01/12 04:57:57;;;;;;;;;;;;;;;18.46;52.40;103616.81;7277237;19;153476;-51
2022/01/12 05:00:25;;;;;;;;;;;;;;;18.49;52.61;103627.53;7278562;19;152178;-52
2022/01/12 05:13:19;;;;;;;;;;;;;;;18.72;53.60;103644.59;7278062;19;152221;-51
2022/01/12 05:15:46;;;;;;;;;;;;;;;18.78;53.65;103645.63;7280243;19;153277;-54
2022/01/12 05:18:13;;;;;;;;;;;;;;;18.84;53.64;103653.97;7278479;19;153700;-52
2022/01/12 05:20:39;;;;;;;;;;;;;;;18.91;53.72;103648.28;7279378;19;151960;-51
2022/01/12 05:23:06;;;;;;;;;;;;;;;18.97;53.94;103651.03;7278184;19;152718;-52
2022/01/12 05:25:33;;;;;;;;;;;;;;;19.04;53.85;103645.31;7279747;19;153625;-52
2022/01/12 05:27:59;;;;;;;;;;;;;;;19.11;53.22;103648.94;7280243;19;152310;-51
2022/01/12 05:30:26;;;;;;;;;;;;;;;19.18;53.41;103651.63;7287085;19;153159;-51
2022/01/12 05:32:53;;;;;;;;;;;;;;;19.25;53.18;103653.28;7279500;19;152062;-51
2022/01/12 05:35:20;;;;;;;;;;;;;;;19.32;52.90;103647.59;7279021;19;153301;-51
2022/01/12 05:37:47;;;;;;;;;;;;;;;19.38;52.36;103646.66;7276957;19;154233;-51
2022/01/12 05:40:14;;;;;;;;;;;;;;;19.44;52.43;103648.56;7277611;19;152493;-51
2022/01/12 05:42:42;;;;;;;;;;;;;;;19.50;51.82;103654.06;7279488;19;153353;-51
2022/01/12 05:45:10;;;;;;;;;;;;;;;19.57;51.64;103653.13;7277873;19;153862;-51
2022/01/12 05:50:13;;;;;;;;;;;;;;;19.71;51.24;103660.28;7278846;19;153068;-52
2022/01/12 05:52:40;;;;;;;;;;;;;;;19.76;51.29;103666.88;7285504;19;152134;-51
2022/01/12 05:55:08;;;;;;;;;;;;;;;19.82;50.61;103674.34;7278926;19;152461;-54
2022/01/12 05:57:35;;;;;;;;;;;;;;;19.89;50.63;103679.88;7274523;19;153490;-54
2022/01/12 06:00:04;;;;;;;;;;;;;;;19.93;50.52;103683.91;7275349;19;152025;-51
2022/01/12 06:02:31;;;;;;;;;;;;;;;19.99;50.38;103671.72;7279800;19;152734;-52
2022/01/12 06:04:58;;;;;;;;;;;;;;;20.05;50.49;103690.44;7274471;19;153667;-51
2022/01/12 06:07:25;;;;;;;;;;;;;;;20.11;50.29;103700.72;7276565;19;151954;-52
2022/01/12 06:09:51;;;;;;;;;;;;;;;20.17;50.01;103696.09;7276345;19;153228;-52
2022/01/12 06:12:18;;;;;;;;;;;;;;;20.21;49.64;103692.56;7275222;19;153947;-52
2022/01/12 06:14:45;;;;;;;;;;;;;;;20.26;49.67;103680.63;7285982;19;152182;-52
2022/01/12 06:17:11;;;;;;;;;;;;;;;20.32;49.59;103693.72;7278910;19;153410;-51
2022/01/12 06:19:39;;;;;;;;;;;;;;;20.39;49.50;103705.72;7276094;19;151997;-51
2022/01/12 06:22:07;;;;;;;;;;;;;;;20.42;49.10;103703.28;7278406;19;153443;-51
2022/01/12 06:24:34;;;;;;;;;;;;;;;20.46;48.87;103703.66;7276657;19;154384;-51
2022/01/12 06:27:03;;;;;;;;;;;;;;;20.51;49.17;103712.22;7276485;19;152116;-52
2022/01/12 06:32:07;;;;;;;;;;;;;;;20.62;48.95;103730.19;7284208;19;153776;-51
2022/01/12 06:34:34;;;;;;;;;;;;;;;20.66;48.59;103726.66;7284851;19;152278;-51
2022/01/12 06:37:01;;;;;;;;;;;;;;;20.70;48.56;103725.06;7289472;19;153019;-51
2022/01/12 06:39:28;;;;;;;;;;;;;;;20.74;48.49;103726.28;7283285;19;152469;-51
2022/01/12 06:41:55;;;;;;;;;;;;;;;20.79;48.66;103729.25;7285003;19;152902;-55
2022/01/12 06:44:22;;;;;;;;;;;;;;;20.83;48.16;103730.47;7283029;19;153461;-52
2022/01/12 06:46:51;;;;;;;;;;;;;;;20.88;48.17;103728.88;7283444;19;151991;-51
2022/01/12 06:49:18;;;;;;;;;;;;;;;20.92;48.38;103730.09;7284526;19;153673;-52
2022/01/12 06:51:45;;;;;;;;;;;;;;;20.96;47.81;103725.69;7283333;19;153370;-52
2022/01/12 06:54:13;;;;;;;;;;;;;;;21.00;47.87;103732.53;7281965;19;151998;-51
2022/01/12 06:56:40;;;;;;;;;;;;;;;21.04;47.57;103723.38;7282872;19;153149;-51
2022/01/12 06:59:07;;;;;;;;;;;;;;;21.08;47.77;103732.16;7289434;19;152390;-51
2022/01/12 07:01:36;;;;;;;;;;;;;;;21.12;48.02;103731.44;7284030;19;152735;-51
2022/01/12 07:04:04;;;;;;;;;;;;;;;21.16;47.97;103731.84;7282929;19;153436;-51
2022/01/12 07:06:31;;;;;;;;;;;;;;;21.20;48.16;103735.88;7279577;19;151922;-51
2022/01/12 07:08:57;;;;;;;;;;;;;;;21.24;48.23;103732.34;7284690;19;153177;-52
2022/01/12 07:11:24;;;;;;;;;;;;;;;21.27;47.93;103726.22;7283210;19;153386;-51
2022/01/12 07:13:51;;;;;;;;;;;;;;;21.31;48.29;103740.63;7281440;19;152260;-51
2022/01/12 07:16:17;;;;;;;;;;;;;;;21.34;48.24;103737.34;7283012;19;151715;-52
2022/01/12 07:18:44;;;;;;;;;;;;;;;21.40;47.79;103743.91;7287171;19;153471;-52
2022/01/12 07:21:11;;;;;;;;;;;;;;;21.43;48.34;103743.44;7282912;19;153454;-53
2022/01/12 07:23:38;;;;;;;;;;;;;;;21.46;47.80;103746.63;7282010;19;153919;-52
2022/01/12 07:26:04;;;;;;;;;;;;;;;21.49;47.53;103751.72;7281355;19;152334;-52
2022/01/12 07:28:31;;;;;;;;;;;;;;;21.51;47.02;103749.53;7280047;19;153747;-52
2022/01/12 07:30:58;;;;;;;;;;;;;;;21.53;46.82;103750.13;7281373;19;153991;-52
2022/01/12 07:33:25;;;;;;;;;;;;;;;21.56;46.95;103752.47;7281880;19;152010;-53
2022/01/12 07:35:52;;;;;;;;;;;;;;;21.03;39.30;103749.75;7282198;19;152417;-52
2022/01/12 07:38:19;;;;;;;;;;;;;;;21.11;42.06;103745.75;7278013;19;153729;-52
2022/01/12 07:40:46;;;;;;;;;;;;;;;21.22;43.19;103759.84;7291261;19;152314;-52
2022/01/12 07:43:12;;;;;;;;;;;;;;;21.12;41.52;103765.16;7279277;19;153933;-52
2022/01/12 07:45:39;;;;;;;;;;;;;;;21.14;41.38;103762.16;7283602;19;152032;-52
2022/01/12 07:48:06;;;;;;;;;;;;;;;21.16;42.13;103776.84;7284326;19;153477;-52
2022/01/12 07:50:33;;;;;;;;;;;;;;;21.16;42.21;103779.66;7280102;19;153821;-50
2022/01/12 07:52:59;;;;;;;;;;;;;;;21.15;41.99;103784.41;7282865;19;152223;-50
2022/01/12 07:55:27;;;;;;;;;;;;;;;21.19;42.19;103787.59;7282477;19;153231;-50
2022/01/12 07:57:53;;;;;;;;;;;;;;;21.18;42.06;103789.53;7280050;19;152335;-50
2022/01/12 08:00:20;;;;;;;;;;;;;;;21.19;42.28;103793.22;7281945;19;152435;-49
2022/01/12 08:02:49;;;;;;;;;;;;;;;21.21;42.15;103796.66;7288201;19;153138;-50
2022/01/12 08:05:17;;;;;;;;;;;;;;;21.19;42.19;103799.69;7277479;19;152864;-50
2022/01/12 08:07:45;;;;;;;;;;;;;;;21.22;42.26;103809.59;7280795;19;153170;-49
2022/01/12 08:10:11;;;;;;;;;;;;;;;21.23;42.54;103820.59;7282289;19;153879;-50
2022/01/12 08:12:38;;;;;;;;;;;;;;;21.24;42.06;103824.28;7282798;19;151873;-50
2022/01/12 08:15:06;;;;;;;;;;;;;;;21.26;42.05;103827.69;7280275;19;154743;-50
2022/01/12 08:17:33;;;;;;;;;;;;;;;21.24;42.20;103827.94;7280890;19;154048;-50
2022/01/12 08:20:01;;;;;;;;;;;;;;;21.30;42.39;103834.56;7280110;19;152130;-50
2022/01/12 08:22:28;;;;;;;;;;;;;;;21.36;42.22;103836.38;7279856;19;152171;-50
2022/01/12 08:24:55;;;;;;;;;;;;;;;21.32;42.18;103835.16;7286822;19;153374;-53
2022/01/12 08:27:22;;;;;;;;;;;;;;;21.40;42.11;103836.75;7283778;19;153211;-53
2022/01/12 08:29:50;;;;;;;;;;;;;;;21.34;42.02;103841.41;7278447;19;154186;-52
2022/01/12 08:32:17;;;;;;;;;;;;;;;21.37;42.17;103842.88;7281495;19;152079;-50
2022/01/12 08:34:44;;;;;;;;;;;;;;;21.35;41.96;103847.91;7285158;19;152812;-50
2022/01/12 08:37:11;;;;;;;;;;;;;;;21.33;41.93;103845.31;7280671;19;154093;-52
2022/01/12 08:39:38;;;;;;;;;;;;;;;21.35;42.27;103843.09;7278201;19;152106;-53
2022/01/12 08:42:05;;;;;;;;;;;;;;;21.34;42.21;103849.84;7284085;19;152781;-53
2022/01/12 08:44:38;;;;;;;;;;;;;;;21.34;41.91;103849.84;7280821;19;153320;-53
2022/01/12 08:47:05;;;;;;;;;;;;;;;21.37;41.88;103857.78;7287448;19;151864;-52
2022/01/12 08:49:32;;;;;;;;;;;;;;;21.49;42.29;103860.59;7280585;19;153754;-53
2022/01/12 08:51:59;;;;;;;;;;;;;;;21.55;42.08;103856.81;7279413;19;152138;-51
2022/01/12 08:54:26;;;;;;;;;;;;;;;21.61;42.26;103864.28;7281260;19;153118;-52
2022/01/12 08:56:53;;;;;;;;;;;;;;;21.64;42.03;103870.28;7280901;19;153537;-52
2022/01/12 08:59:22;;;;;;;;;;;;;;;21.69;42.05;103869.53;7278480;19;152962;-52
2022/01/12 09:01:49;;;;;;;;;;;;;;;21.71;42.32;103875.78;7281260;19;153549;-52
2022/01/12 09:04:16;;;;;;;;;;;;;;;21.76;41.93;103877.88;7277371;19;153386;-49
2022/01/12 09:06:49;;;;;;;;;;;;;;;21.79;42.23;103883.00;7283616;19;152756;-49
2022/01/12 09:09:16;;;;;;;;;;;;;;;21.82;42.15;103876.88;7277225;19;154292;-50
2022/01/12 09:11:42;;;;;;;;;;;;;;;21.86;42.41;103878.06;7280707;19;152150;-49
2022/01/12 09:14:09;;;;;;;;;;;;;;;21.89;42.22;103880.41;7280220;19;152513;-52
2022/01/12 09:16:40;;;;;;;;;;;;;;;21.92;42.06;103882.72;7279865;19;152844;-51
2022/01/12 09:19:08;;;;;;;;;;;;;;;21.93;42.22;103888.16;7277935;19;151918;-52
2022/01/12 09:21:35;;;;;;;;;;;;;;;21.97;42.28;103909.09;7279296;19;152710;-52
2022/01/12 09:24:02;;;;;;;;;;;;;;;21.98;42.36;103909.94;7278172;19;154053;-53
2022/01/12 09:26:29;;;;;;;;;;;;;;;22.00;42.06;103913.34;7278753;19;152804;-52
2022/01/12 09:28:56;;;;;;;;;;;;;;;22.00;42.06;103907.72;7285844;19;152347;-52
2022/01/12 09:31:23;;;;;;;;;;;;;;;22.01;42.08;103906.63;7278695;19;152077;-49
2022/01/12 09:33:50;;;;;;;;;;;;;;;22.01;42.23;103907.47;7281576;19;153401;-48
2022/01/12 09:36:17;;;;;;;;;;;;;;;22.00;41.89;103914.22;7281687;19;153268;-49
2022/01/12 09:38:44;;;;;;;;;;;;;;;22.00;42.23;103927.44;7277165;19;152413;-51
2022/01/12 09:41:11;;;;;;;;;;;;;;;21.98;42.03;103929.66;7279627;19;152466;-51
2022/01/12 09:43:40;;;;;;;;;;;;;;;21.97;42.11;103927.94;7278674;19;153815;-51
2022/01/12 09:46:07;;;;;;;;;;;;;;;21.96;41.88;103929.88;7277832;19;152123;-51
2022/01/12 09:48:36;;;;;;;;;;;;;;;21.94;42.19;103923.63;7277705;19;153188;-51
2022/01/12 09:51:06;;;;;;;;;;;;;;;21.92;41.87;103927.78;7284212;19;154101;-51
2022/01/12 09:53:35;;;;;;;;;;;;;;;21.90;42.21;103927.16;7278752;19;151784;-51
2022/01/12 09:56:09;;;;;;;;;;;;;;;21.87;42.17;103927.66;7274382;19;153433;-49
2022/01/12 09:58:35;;;;;;;;;;;;;;;21.85;42.02;103927.88;7277770;19;152318;-48
2022/01/12 10:01:03;;;;;;;;;;;;;;;21.82;42.44;103934.00;7278806;19;152867;-49
2022/01/12 10:03:32;;;;;;;;;;;;;;;21.80;42.06;103941.00;7275266;19;153875;-50
2022/01/12 10:06:00;;;;;;;;;;;;;;;21.77;42.21;103936.72;7281300;19;152215;-51
2022/01/12 10:08:34;;;;;;;;;;;;;;;21.76;42.67;103942.59;7283675;19;153377;-51
2022/01/12 10:11:05;;;;;;;;;;;;;;;21.74;42.63;103954.09;7284172;19;154198;-50
2022/01/12 10:13:32;;;;;;;;;;;;;;;21.73;42.36;103955.19;7292935;19;152288;-50
2022/01/12 10:16:10;;;;;;;;;;;;;;;21.69;42.57;103956.78;7282907;19;153733;-50
2022/01/12 10:18:46;;;;;;;;;;;;;;;21.67;42.68;103964.59;7284045;19;151653;-50
2022/01/12 10:21:24;;;;;;;;;;;;;;;21.65;42.70;103961.19;7285572;19;152720;-51
2022/01/12 10:23:54;;;;;;;;;;;;;;;21.61;42.75;103966.44;7284089;19;153379;-50
2022/01/12 10:26:29;;;;;;;;;;;;;;;21.60;42.76;103961.91;7285579;19;151888;-50
2022/01/12 10:29:06;;;;;;;;;;;;;;;21.58;42.91;103972.53;7282652;19;151944;-50
2022/01/12 10:31:42;;;;;;;;;;;;;;;21.57;43.31;103958.72;7283638;19;154138;-50
2022/01/12 10:34:14;;;;;;;;;;;;;;;21.48;42.50;103961.03;7283120;19;152102;-51
2022/01/12 10:36:42;;;;;;;;;;;;;;;21.44;42.26;103962.59;7266278;19;153421;-50
2022/01/12 10:39:11;;;;;;;;;;;;;;;21.41;41.99;103959.41;7285136;19;152042;-50
2022/01/12 10:41:51;;;;;;;;;;;;;;;21.35;41.31;103961.22;7287283;19;153624;-50
2022/01/12 10:44:19;;;;;;;;;;;;;;;21.31;41.86;103948.75;7282922;19;153863;-51
2022/01/12 10:46:47;;;;;;;;;;;;;;;21.29;41.25;103939.72;7283706;19;152041;-50
2022/01/12 10:49:20;;;;;;;;;;;;;;;21.24;41.45;103946.06;7284521;19;153257;-51
2022/01/12 10:51:56;;;;;;;;;;;;;;;21.22;40.99;103934.19;7282613;19;153332;-51
2022/01/12 10:54:23;;;;;;;;;;;;;;;21.20;41.11;103935.53;7284414;19;151714;-51
2022/01/12 10:56:51;;;;;;;;;;;;;;;21.18;41.41;103929.28;7282447;19;152536;-51
2022/01/12 10:59:19;;;;;;;;;;;;;;;21.18;41.43;103926.47;7288640;19;153595;-51
2022/01/12 11:01:46;;;;;;;;;;;;;;;21.16;41.04;103911.81;7283017;19;153551;-50
2022/01/12 11:04:14;;;;;;;;;;;;;;;21.18;41.82;103910.44;7282880;19;154423;-51
2022/01/12 11:06:41;;;;;;;;;;;;;;;21.49;45.74;103902.78;7280837;19;152038;-53
2022/01/12 11:09:08;;;;;;;;;;;;;;;21.41;42.88;103897.53;7281775;19;153681;-53
2022/01/12 11:11:35;;;;;;;;;;;;;;;21.33;43.24;103890.31;7280716;19;154553;-52
2022/01/12 11:14:02;;;;;;;;;;;;;;;21.30;43.24;103896.44;7282998;19;151547;-51
2022/01/12 11:16:29;;;;;;;;;;;;;;;21.27;43.28;103886.50;7281909;19;153552;-51
2022/01/12 11:19:00;;;;;;;;;;;;;;;21.27;43.50;103891.28;7286992;19;152010;-52
2022/01/12 11:21:32;;;;;;;;;;;;;;;21.28;43.18;103895.81;7281934;19;152961;-51
2022/01/12 11:24:00;;;;;;;;;;;;;;;21.28;42.96;103893.00;7281706;19;153747;-51
2022/01/12 11:26:28;;;;;;;;;;;;;;;21.28;42.96;103893.84;7283908;19;151958;-51
2022/01/12 11:28:55;;;;;;;;;;;;;;;21.30;43.02;103893.63;7279820;19;153464;-51
2022/01/12 11:31:23;;;;;;;;;;;;;;;21.32;42.83;103893.34;7282075;19;152994;-51
2022/01/12 11:33:50;;;;;;;;;;;;;;;21.34;42.66;103899.59;7282533;19;152022;-51
2022/01/12 11:36:17;;;;;;;;;;;;;;;21.35;42.72;103890.09;7283319;19;152313;-50
2022/01/12 11:38:47;;;;;;;;;;;;;;;21.38;42.50;103889.59;7281752;19;154564;-51
2022/01/12 11:41:17;;;;;;;;;;;;;;;21.40;42.75;103882.59;7289123;19;151996;-51
2022/01/12 11:43:45;;;;;;;;;;;;;;;21.42;42.55;103885.19;7281089;19;154264;-51
2022/01/12 11:46:14;;;;;;;;;;;;;;;21.45;42.20;103887.50;7282246;19;152286;-51
2022/01/12 11:48:47;;;;;;;;;;;;;;;21.47;42.52;103879.69;7279802;19;152648;-50
2022/01/12 11:51:15;;;;;;;;;;;;;;;21.47;42.22;103880.53;7280104;19;153275;-51
2022/01/12 11:53:43;;;;;;;;;;;;;;;21.51;42.44;103887.41;7282661;19;151762;-51
2022/01/12 11:56:12;;;;;;;;;;;;;;;21.49;42.04;103897.16;7281414;19;152762;-51
2022/01/12 11:58:48;;;;;;;;;;;;;;;21.50;42.01;103896.94;7281643;19;153218;-51
2022/01/12 12:01:15;;;;;;;;;;;;;;;21.50;41.64;103896.94;7283150;19;151950;-51
2022/01/12 12:03:54;;;;;;;;;;;;;;;21.51;41.56;103892.16;7288886;19;154281;-51
2022/01/12 12:06:21;;;;;;;;;;;;;;;21.50;41.67;103899.75;7276629;19;152412;-51
2022/01/12 12:08:57;;;;;;;;;;;;;;;21.52;41.78;103903.19;7282127;19;154329;-53
2022/01/12 12:11:25;;;;;;;;;;;;;;;21.52;41.80;103897.56;7281489;19;153241;-51
2022/01/12 12:13:52;;;;;;;;;;;;;;;21.52;41.29;103891.94;7280665;19;152577;-52
2022/01/12 12:16:19;;;;;;;;;;;;;;;21.53;41.41;103895.59;7283383;19;153548;-50
2022/01/12 12:18:46;;;;;;;;;;;;;;;21.51;41.15;103890.22;7281110;19;153288;-50
2022/01/12 12:21:13;;;;;;;;;;;;;;;21.50;41.56;103882.88;7279118;19;151960;-50
2022/01/12 12:23:40;;;;;;;;;;;;;;;21.51;41.18;103880.91;7280152;19;153141;-51
2022/01/12 12:26:08;;;;;;;;;;;;;;;21.50;41.25;103879.19;7284415;19;153237;-51
2022/01/12 12:28:35;;;;;;;;;;;;;;;21.48;41.24;103875.78;7276904;19;152573;-50
2022/01/12 12:31:02;;;;;;;;;;;;;;;21.48;41.26;103884.22;7281305;19;153333;-51
2022/01/12 12:33:29;;;;;;;;;;;;;;;21.46;41.03;103883.59;7281700;19;152071;-51
2022/01/12 12:35:56;;;;;;;;;;;;;;;21.42;41.02;103883.22;7281700;19;152885;-52
2022/01/12 12:38:23;;;;;;;;;;;;;;;21.43;40.69;103876.50;7280394;19;153290;-51
2022/01/12 12:40:55;;;;;;;;;;;;;;;21.41;41.06;103861.81;7277468;19;152204;-51
2022/01/12 12:43:25;;;;;;;;;;;;;;;21.41;40.66;103855.34;7278386;19;153335;-51
2022/01/12 12:45:56;;;;;;;;;;;;;;;21.37;40.85;103849.34;7278708;19;153697;-51
2022/01/12 12:48:25;;;;;;;;;;;;;;;21.34;40.97;103846.16;7288560;19;151841;-51
2022/01/12 12:50:57;;;;;;;;;;;;;;;21.32;40.58;103829.53;7278383;19;153499;-51
2022/01/12 12:53:33;;;;;;;;;;;;;;;21.30;40.98;103826.94;7281140;19;152396;-51
2022/01/12 12:56:00;;;;;;;;;;;;;;;21.30;40.86;103826.13;7281436;19;153506;-51
2022/01/12 12:58:31;;;;;;;;;;;;;;;21.24;41.01;103813.03;7278304;19;153370;-51
2022/01/12 13:01:08;;;;;;;;;;;;;;;21.23;40.71;103808.50;7275132;19;152439;-52
2022/01/12 13:03:36;;;;;;;;;;;;;;;21.23;40.53;103808.50;7278830;19;153401;-55
2022/01/12 13:06:03;;;;;;;;;;;;;;;21.21;40.57;103799.47;7277299;19;153229;-51
2022/01/12 13:08:30;;;;;;;;;;;;;;;21.19;40.74;103805.31;7279844;19;152694;-50
2022/01/12 13:11:04;;;;;;;;;;;;;;;21.18;40.43;103802.75;7287134;19;152548;-51
2022/01/12 13:13:31;;;;;;;;;;;;;;;21.15;40.48;103798.47;7278866;19;151863;-51
2022/01/12 13:15:58;;;;;;;;;;;;;;;21.15;40.71;103808.84;7278755;19;153378;-50
2022/01/12 13:18:25;;;;;;;;;;;;;;;21.10;40.55;103812.38;7278780;19;154053;-51
2022/01/12 13:23:32;;;;;;;;;;;;;;;21.09;40.78;103821.03;7278540;19;153583;-51
2022/01/12 13:26:04;;;;;;;;;;;;;;;21.08;40.92;103837.03;7279705;19;153448;-50
2022/01/12 13:28:31;;;;;;;;;;;;;;;21.07;40.33;103848.56;7281279;19;151756;-50
2022/01/12 13:31:00;;;;;;;;;;;;;;;21.02;40.82;103848.41;7288364;19;152527;-50
2022/01/12 13:33:27;;;;;;;;;;;;;;;21.01;40.48;103849.50;7280412;19;151832;-51
2022/01/12 13:35:54;;;;;;;;;;;;;;;20.99;40.50;103855.34;7278753;19;153029;-50
2022/01/12 13:38:26;;;;;;;;;;;;;;;20.94;40.74;103857.19;7278263;19;152322;-51
2022/01/12 13:40:55;;;;;;;;;;;;;;;20.96;40.74;103867.09;7283936;19;152462;-51
2022/01/12 13:43:23;;;;;;;;;;;;;;;20.91;40.52;103855.72;7286690;19;152821;-50
2022/01/12 13:45:59;;;;;;;;;;;;;;;20.89;40.69;103843.00;7283969;19;154211;-50
2022/01/12 13:49:05;;;;;;;;;;;;;;;20.86;40.82;103842.38;7285780;19;151924;-51
2022/01/12 13:51:37;;;;;;;;;;;;;;;20.83;40.64;103831.63;7286470;19;152561;-50
2022/01/12 13:54:07;;;;;;;;;;;;;;;20.82;40.86;103841.16;7290579;19;153476;-51
2022/01/12 13:56:35;;;;;;;;;;;;;;;20.78;40.97;103851.16;7284632;19;152943;-51
2022/01/12 13:59:02;;;;;;;;;;;;;;;20.74;41.14;103855.53;7281235;19;152544;-51